Jenks, OK (74037)

9:54 PM CDT on May 05, 2015 (GMT -0500)
KOKJENKS3 | | Change Station
CLOSE
Current Station
Personal Weather Station
Location: Jenks, OK
Elevation: 630 ft
Nearby Weather Stations

Elev 630 ft 36.03 °N, 95.97 °W | Updated 1 second ago

Light Rain
Light Rain
68.2 °F
Feels Like 68.2 °F
N
5.0
Wind Variable Wind from East
Gusts 8.0 mph

Today
High -- | Low -- °F
--% Chance of Precip.
Yesterday
High -- | Low -- °F
Precip. -- in
6:27 AM 8:14 PM
Waning Gibbous, 96% visible
Pressure 29.98 in
Visibility 10.0 miles
Clouds Scattered Clouds 6000 ft
Mostly Cloudy 8000 ft
Overcast 9000 ft
Dew Point 65 °F
Humidity 90%
Rainfall 0.13 in
Snow Depth Not available.
UV 0 out of 12
Pollen 7.40 out of 12
Air Quality Not available.
Flu Activity Local Activity
METAR KRVS 060153Z 16007KT 10SM -RA SCT060 BKN080 OVC090 22/18 A2996 RMK AO2 RAB51 SLP150 P0000 T02170178

More Conditions Fewer Conditions

Pressure 29.98 in
Visibility 10.0 miles
Clouds Scattered Clouds 6000 ft
Mostly Cloudy 8000 ft
Overcast 9000 ft
Dew Point 65 °F
Humidity 90%
Rainfall 0.13 in
Snow Depth Not available.
UV 0 out of 12
Pollen 7.40 out of 12
Air Quality Not available.
Flu Activity Local Activity
METAR KRVS 060153Z 16007KT 10SM -RA SCT060 BKN080 OVC090 22/18 A2996 RMK AO2 RAB51 SLP150 P0000 T02170178

More Conditions Fewer Conditions

Nowcast | as of 9:41 PM CDT on May 5, 2015

at 9:36 PM scattered showers and isolated thunderstorms were advancing northward at 30 mph across eastern Oklahoma. Most of the rain and isolated thunderstorms were occurring to the west of Highway 75. Through 11:30 PM... showers and isolated thunderstorms are expected to continue becoming more numerous over eastern Oklahoma to the east of Highway 75 as well. Average hourly rainfall rates of several hundredths of an inch are anticipated... mainly west of Highway 75 and south of I 40. The strongest showers or thunderstorms however... may produce a tenth to over a quarter of an inch.

×

10-Day Weather Forecast

Almanac

Astronomy

May. 05, 2015 Rise Set
Actual Time
Civil Twilight
Nautical Twilight
Astronomical Twilight
Moon
Length of Visible Light
Length of Day
Tomorrow will be .
, % of the Moon is Illuminated

Today's Extremes

State Highs State Lows

Community

WunderPhotos

Upload Photos

1,819,049 photos uploaded!

WunderBlogs® & News

Nearby

Air Quality

  Air Quality AQ Index Pollutant
Not available.

Snow Depth

Station Depth Elevation

Earthquake Activity

City Distance Mag. Time & Date
Minimum magnitude displayed is 2.5.

Coastal Water Temperatures

Place Temperature

Stations

Nearby Weather Stations

Station Location Temp. Windchill Dew Point Humidity Wind Precip. Elev Updated Type